sensor_id;sensor_type;location;lat;lon;timestamp;temperature;humidity
15013;DHT22;7603;49.432;11.418;2023-06-19T00:00:56;18.20;69.50
15013;DHT22;7603;49.432;11.418;2023-06-19T00:03:22;18.30;69.20
15013;DHT22;7603;49.432;11.418;2023-06-19T00:05:48;18.30;68.50
15013;DHT22;7603;49.432;11.418;2023-06-19T00:08:13;18.40;68.10
15013;DHT22;7603;49.432;11.418;2023-06-19T00:10:39;18.40;67.70
15013;DHT22;7603;49.432;11.418;2023-06-19T00:13:04;18.40;67.20
15013;DHT22;7603;49.432;11.418;2023-06-19T00:15:30;18.40;67.20
15013;DHT22;7603;49.432;11.418;2023-06-19T00:17:56;18.50;66.90
15013;DHT22;7603;49.432;11.418;2023-06-19T00:20:23;18.50;67.10
15013;DHT22;7603;49.432;11.418;2023-06-19T00:22:48;18.40;66.90
15013;DHT22;7603;49.432;11.418;2023-06-19T00:25:20;18.40;67.40
15013;DHT22;7603;49.432;11.418;2023-06-19T00:27:46;18.40;67.20
15013;DHT22;7603;49.432;11.418;2023-06-19T00:30:12;18.40;67.40
15013;DHT22;7603;49.432;11.418;2023-06-19T00:32:38;18.40;67.00
15013;DHT22;7603;49.432;11.418;2023-06-19T00:35:15;18.40;66.40
15013;DHT22;7603;49.432;11.418;2023-06-19T00:37:41;18.40;66.20
15013;DHT22;7603;49.432;11.418;2023-06-19T00:40:26;18.40;65.90
15013;DHT22;7603;49.432;11.418;2023-06-19T00:42:52;18.40;65.80
15013;DHT22;7603;49.432;11.418;2023-06-19T00:45:18;18.40;65.70
15013;DHT22;7603;49.432;11.418;2023-06-19T00:47:43;18.40;65.40
15013;DHT22;7603;49.432;11.418;2023-06-19T00:50:09;18.40;65.60
15013;DHT22;7603;49.432;11.418;2023-06-19T00:52:35;18.50;65.60
15013;DHT22;7603;49.432;11.418;2023-06-19T00:55:01;18.50;66.40
15013;DHT22;7603;49.432;11.418;2023-06-19T00:57:28;18.50;66.60
15013;DHT22;7603;49.432;11.418;2023-06-19T00:59:55;18.40;65.80
15013;DHT22;7603;49.432;11.418;2023-06-19T01:02:22;18.40;65.40
15013;DHT22;7603;49.432;11.418;2023-06-19T01:04:49;18.40;64.80
15013;DHT22;7603;49.432;11.418;2023-06-19T01:07:22;18.40;65.20
15013;DHT22;7603;49.432;11.418;2023-06-19T01:09:54;18.40;65.30
15013;DHT22;7603;49.432;11.418;2023-06-19T01:12:36;18.40;65.60
15013;DHT22;7603;49.432;11.418;2023-06-19T01:15:04;18.40;65.20
15013;DHT22;7603;49.432;11.418;2023-06-19T01:17:31;18.40;65.00
15013;DHT22;7603;49.432;11.418;2023-06-19T01:19:58;18.40;64.10
15013;DHT22;7603;49.432;11.418;2023-06-19T01:22:30;18.40;63.80
15013;DHT22;7603;49.432;11.418;2023-06-19T01:24:56;18.50;64.50
15013;DHT22;7603;49.432;11.418;2023-06-19T01:27:26;18.50;63.70
15013;DHT22;7603;49.432;11.418;2023-06-19T01:29:55;18.50;62.90
15013;DHT22;7603;49.432;11.418;2023-06-19T01:32:47;18.50;62.60
15013;DHT22;7603;49.432;11.418;2023-06-19T01:35:16;18.60;63.40
15013;DHT22;7603;49.432;11.418;2023-06-19T01:37:43;18.60;63.70
15013;DHT22;7603;49.432;11.418;2023-06-19T01:40:11;18.60;63.50
15013;DHT22;7603;49.432;11.418;2023-06-19T01:42:39;18.60;63.90
15013;DHT22;7603;49.432;11.418;2023-06-19T01:45:07;18.70;64.80
15013;DHT22;7603;49.432;11.418;2023-06-19T01:47:33;18.70;65.60
15013;DHT22;7603;49.432;11.418;2023-06-19T01:49:58;18.60;65.70
15013;DHT22;7603;49.432;11.418;2023-06-19T01:52:25;18.60;66.00
15013;DHT22;7603;49.432;11.418;2023-06-19T01:54:51;18.60;66.40
15013;DHT22;7603;49.432;11.418;2023-06-19T01:57:17;18.60;66.50
15013;DHT22;7603;49.432;11.418;2023-06-19T01:59:43;18.50;66.90
15013;DHT22;7603;49.432;11.418;2023-06-19T02:02:09;18.40;67.10
15013;DHT22;7603;49.432;11.418;2023-06-19T02:04:34;18.40;66.60
15013;DHT22;7603;49.432;11.418;2023-06-19T02:07:00;18.30;65.70
15013;DHT22;7603;49.432;11.418;2023-06-19T02:09:25;18.20;65.10
15013;DHT22;7603;49.432;11.418;2023-06-19T02:11:51;18.20;65.10
15013;DHT22;7603;49.432;11.418;2023-06-19T02:14:17;18.10;64.50
15013;DHT22;7603;49.432;11.418;2023-06-19T02:16:43;18.10;64.60
15013;DHT22;7603;49.432;11.418;2023-06-19T02:19:10;18.00;64.30
15013;DHT22;7603;49.432;11.418;2023-06-19T02:21:36;18.00;64.40
15013;DHT22;7603;49.432;11.418;2023-06-19T02:24:01;18.00;64.20
15013;DHT22;7603;49.432;11.418;2023-06-19T02:26:27;17.90;64.60
15013;DHT22;7603;49.432;11.418;2023-06-19T02:28:57;17.90;64.40
15013;DHT22;7603;49.432;11.418;2023-06-19T02:31:23;17.90;64.30
15013;DHT22;7603;49.432;11.418;2023-06-19T02:33:49;17.90;64.30
15013;DHT22;7603;49.432;11.418;2023-06-19T02:36:15;17.90;64.70
15013;DHT22;7603;49.432;11.418;2023-06-19T02:38:48;17.90;64.70
15013;DHT22;7603;49.432;11.418;2023-06-19T02:41:14;17.80;64.90
15013;DHT22;7603;49.432;11.418;2023-06-19T02:43:44;17.80;64.50
15013;DHT22;7603;49.432;11.418;2023-06-19T02:46:10;17.70;64.60
15013;DHT22;7603;49.432;11.418;2023-06-19T02:48:36;17.70;65.30
15013;DHT22;7603;49.432;11.418;2023-06-19T02:51:02;17.60;65.40
15013;DHT22;7603;49.432;11.418;2023-06-19T02:53:27;17.60;66.00
15013;DHT22;7603;49.432;11.418;2023-06-19T02:55:53;17.50;66.70
15013;DHT22;7603;49.432;11.418;2023-06-19T02:58:18;17.40;66.30
15013;DHT22;7603;49.432;11.418;2023-06-19T03:00:45;17.40;65.90
15013;DHT22;7603;49.432;11.418;2023-06-19T03:03:10;17.40;66.70
15013;DHT22;7603;49.432;11.418;2023-06-19T03:05:36;17.40;68.00
15013;DHT22;7603;49.432;11.418;2023-06-19T03:08:02;17.40;66.40
15013;DHT22;7603;49.432;11.418;2023-06-19T03:10:28;17.40;66.30
15013;DHT22;7603;49.432;11.418;2023-06-19T03:12:53;17.50;66.90
15013;DHT22;7603;49.432;11.418;2023-06-19T03:15:19;17.50;66.90
15013;DHT22;7603;49.432;11.418;2023-06-19T03:17:44;17.60;66.90
15013;DHT22;7603;49.432;11.418;2023-06-19T03:20:10;17.70;66.20
15013;DHT22;7603;49.432;11.418;2023-06-19T03:22:40;17.80;65.80
15013;DHT22;7603;49.432;11.418;2023-06-19T03:25:06;17.90;65.80
15013;DHT22;7603;49.432;11.418;2023-06-19T03:27:33;18.00;64.90
15013;DHT22;7603;49.432;11.418;2023-06-19T03:29:58;18.10;64.60
15013;DHT22;7603;49.432;11.418;2023-06-19T03:32:24;18.20;65.00
15013;DHT22;7603;49.432;11.418;2023-06-19T03:34:49;18.40;64.20
15013;DHT22;7603;49.432;11.418;2023-06-19T03:37:15;18.50;62.80
15013;DHT22;7603;49.432;11.418;2023-06-19T03:39:42;18.60;61.90
15013;DHT22;7603;49.432;11.418;2023-06-19T03:42:08;18.80;61.10
15013;DHT22;7603;49.432;11.418;2023-06-19T03:44:33;19.00;60.70
15013;DHT22;7603;49.432;11.418;2023-06-19T03:46:59;19.10;60.40
15013;DHT22;7603;49.432;11.418;2023-06-19T03:49:25;19.30;60.60
15013;DHT22;7603;49.432;11.418;2023-06-19T03:51:51;19.30;61.20
15013;DHT22;7603;49.432;11.418;2023-06-19T03:54:17;19.40;61.10
15013;DHT22;7603;49.432;11.418;2023-06-19T03:56:42;19.50;60.50
15013;DHT22;7603;49.432;11.418;2023-06-19T03:59:08;19.50;60.50
15013;DHT22;7603;49.432;11.418;2023-06-19T04:01:34;19.60;60.90
15013;DHT22;7603;49.432;11.418;2023-06-19T04:03:59;19.70;60.70
15013;DHT22;7603;49.432;11.418;2023-06-19T04:06:25;19.80;61.00
15013;DHT22;7603;49.432;11.418;2023-06-19T04:08:51;19.90;61.30
15013;DHT22;7603;49.432;11.418;2023-06-19T04:11:17;19.90;60.50
15013;DHT22;7603;49.432;11.418;2023-06-19T04:13:42;20.00;61.20
15013;DHT22;7603;49.432;11.418;2023-06-19T04:16:08;20.00;61.50
15013;DHT22;7603;49.432;11.418;2023-06-19T04:18:33;20.00;61.00
15013;DHT22;7603;49.432;11.418;2023-06-19T04:21:00;20.10;61.10
15013;DHT22;7603;49.432;11.418;2023-06-19T04:23:26;20.20;61.90
15013;DHT22;7603;49.432;11.418;2023-06-19T04:25:52;20.20;62.10
15013;DHT22;7603;49.432;11.418;2023-06-19T04:28:17;20.20;61.70
15013;DHT22;7603;49.432;11.418;2023-06-19T04:30:43;20.30;62.00
15013;DHT22;7603;49.432;11.418;2023-06-19T04:33:08;20.30;63.10
15013;DHT22;7603;49.432;11.418;2023-06-19T04:35:34;20.30;62.50
15013;DHT22;7603;49.432;11.418;2023-06-19T04:38:06;20.30;63.10
15013;DHT22;7603;49.432;11.418;2023-06-19T04:40:32;20.20;63.20
15013;DHT22;7603;49.432;11.418;2023-06-19T04:42:58;20.20;63.60
15013;DHT22;7603;49.432;11.418;2023-06-19T04:45:24;20.20;64.20
15013;DHT22;7603;49.432;11.418;2023-06-19T04:47:49;20.10;64.20
15013;DHT22;7603;49.432;11.418;2023-06-19T04:50:15;20.10;64.30
15013;DHT22;7603;49.432;11.418;2023-06-19T04:52:41;20.20;63.90
15013;DHT22;7603;49.432;11.418;2023-06-19T04:55:07;20.20;63.80
15013;DHT22;7603;49.432;11.418;2023-06-19T04:57:36;20.30;63.90
15013;DHT22;7603;49.432;11.418;2023-06-19T05:00:06;20.40;63.90
15013;DHT22;7603;49.432;11.418;2023-06-19T05:02:32;20.40;63.20
15013;DHT22;7603;49.432;11.418;2023-06-19T05:04:59;20.40;62.70
15013;DHT22;7603;49.432;11.418;2023-06-19T05:07:31;20.50;62.90
15013;DHT22;7603;49.432;11.418;2023-06-19T05:09:57;20.60;62.60
15013;DHT22;7603;49.432;11.418;2023-06-19T05:12:23;20.80;62.70
15013;DHT22;7603;49.432;11.418;2023-06-19T05:14:49;21.10;62.30
15013;DHT22;7603;49.432;11.418;2023-06-19T05:17:15;21.30;62.30
15013;DHT22;7603;49.432;11.418;2023-06-19T05:19:40;21.60;63.50
15013;DHT22;7603;49.432;11.418;2023-06-19T05:22:06;21.80;63.40
15013;DHT22;7603;49.432;11.418;2023-06-19T05:24:32;22.00;62.40
15013;DHT22;7603;49.432;11.418;2023-06-19T05:26:57;22.10;61.40
15013;DHT22;7603;49.432;11.418;2023-06-19T05:29:23;22.30;60.90
15013;DHT22;7603;49.432;11.418;2023-06-19T05:31:49;22.40;60.50
15013;DHT22;7603;49.432;11.418;2023-06-19T05:34:14;22.60;60.70
15013;DHT22;7603;49.432;11.418;2023-06-19T05:36:40;22.60;61.00
15013;DHT22;7603;49.432;11.418;2023-06-19T05:39:05;22.70;63.00
15013;DHT22;7603;49.432;11.418;2023-06-19T05:41:31;22.70;64.60
15013;DHT22;7603;49.432;11.418;2023-06-19T05:43:57;22.70;65.80
15013;DHT22;7603;49.432;11.418;2023-06-19T05:46:23;22.80;66.20
15013;DHT22;7603;49.432;11.418;2023-06-19T05:48:48;22.80;66.90
15013;DHT22;7603;49.432;11.418;2023-06-19T05:51:14;22.90;67.00
15013;DHT22;7603;49.432;11.418;2023-06-19T05:53:40;23.00;65.70
15013;DHT22;7603;49.432;11.418;2023-06-19T05:56:06;23.10;62.40
15013;DHT22;7603;49.432;11.418;2023-06-19T05:58:32;23.40;61.10
15013;DHT22;7603;49.432;11.418;2023-06-19T06:00:57;23.60;60.60
15013;DHT22;7603;49.432;11.418;2023-06-19T06:03:26;24.00;59.00
15013;DHT22;7603;49.432;11.418;2023-06-19T06:05:53;24.30;57.70
15013;DHT22;7603;49.432;11.418;2023-06-19T06:08:18;24.50;56.30
15013;DHT22;7603;49.432;11.418;2023-06-19T06:10:44;24.80;56.00
15013;DHT22;7603;49.432;11.418;2023-06-19T06:13:10;25.00;54.60
15013;DHT22;7603;49.432;11.418;2023-06-19T06:15:35;25.20;54.90
15013;DHT22;7603;49.432;11.418;2023-06-19T06:18:01;25.40;54.90
15013;DHT22;7603;49.432;11.418;2023-06-19T06:20:28;25.50;54.40
15013;DHT22;7603;49.432;11.418;2023-06-19T06:22:54;25.50;54.10
15013;DHT22;7603;49.432;11.418;2023-06-19T06:25:20;25.50;54.10
15013;DHT22;7603;49.432;11.418;2023-06-19T06:27:46;25.40;53.90
15013;DHT22;7603;49.432;11.418;2023-06-19T06:30:12;25.30;53.50
15013;DHT22;7603;49.432;11.418;2023-06-19T06:32:38;25.20;53.80
15013;DHT22;7603;49.432;11.418;2023-06-19T06:35:04;25.10;54.50
15013;DHT22;7603;49.432;11.418;2023-06-19T06:37:29;24.90;54.90
15013;DHT22;7603;49.432;11.418;2023-06-19T06:39:55;24.90;55.10
15013;DHT22;7603;49.432;11.418;2023-06-19T06:42:21;25.00;55.60
15013;DHT22;7603;49.432;11.418;2023-06-19T06:44:46;25.10;55.50
15013;DHT22;7603;49.432;11.418;2023-06-19T06:47:12;25.40;54.70
15013;DHT22;7603;49.432;11.418;2023-06-19T06:49:37;25.70;54.30
15013;DHT22;7603;49.432;11.418;2023-06-19T06:52:04;25.90;54.00
15013;DHT22;7603;49.432;11.418;2023-06-19T06:54:29;26.10;54.00
15013;DHT22;7603;49.432;11.418;2023-06-19T06:56:55;26.20;53.90
15013;DHT22;7603;49.432;11.418;2023-06-19T06:59:26;26.30;54.00
15013;DHT22;7603;49.432;11.418;2023-06-19T07:01:55;26.40;53.90
15013;DHT22;7603;49.432;11.418;2023-06-19T07:04:21;26.30;54.40
15013;DHT22;7603;49.432;11.418;2023-06-19T07:06:47;26.40;54.50
15013;DHT22;7603;49.432;11.418;2023-06-19T07:09:14;26.40;54.00
15013;DHT22;7603;49.432;11.418;2023-06-19T07:11:40;26.40;54.20
15013;DHT22;7603;49.432;11.418;2023-06-19T07:14:06;26.40;53.90
15013;DHT22;7603;49.432;11.418;2023-06-19T07:16:31;26.40;54.70
15013;DHT22;7603;49.432;11.418;2023-06-19T07:18:57;26.50;54.90
15013;DHT22;7603;49.432;11.418;2023-06-19T07:21:23;26.60;55.20
15013;DHT22;7603;49.432;11.418;2023-06-19T07:23:49;26.80;54.40
15013;DHT22;7603;49.432;11.418;2023-06-19T07:26:15;27.10;53.90
15013;DHT22;7603;49.432;11.418;2023-06-19T07:28:41;27.30;53.70
15013;DHT22;7603;49.432;11.418;2023-06-19T07:31:07;27.40;53.00
15013;DHT22;7603;49.432;11.418;2023-06-19T07:33:33;27.40;53.00
15013;DHT22;7603;49.432;11.418;2023-06-19T07:35:59;27.40;52.90
15013;DHT22;7603;49.432;11.418;2023-06-19T07:38:24;27.40;53.20
15013;DHT22;7603;49.432;11.418;2023-06-19T07:40:50;27.40;53.40
15013;DHT22;7603;49.432;11.418;2023-06-19T07:43:16;27.40;52.80
15013;DHT22;7603;49.432;11.418;2023-06-19T07:45:42;27.20;52.70
15013;DHT22;7603;49.432;11.418;2023-06-19T07:48:08;27.00;53.10
15013;DHT22;7603;49.432;11.418;2023-06-19T07:50:33;26.90;53.30
15013;DHT22;7603;49.432;11.418;2023-06-19T07:52:59;26.90;53.80
15013;DHT22;7603;49.432;11.418;2023-06-19T07:55:25;26.80;53.50
15013;DHT22;7603;49.432;11.418;2023-06-19T07:57:50;26.90;53.70
15013;DHT22;7603;49.432;11.418;2023-06-19T08:00:18;27.00;53.20
15013;DHT22;7603;49.432;11.418;2023-06-19T08:02:43;27.30;52.80
15013;DHT22;7603;49.432;11.418;2023-06-19T08:05:10;27.60;52.50
15013;DHT22;7603;49.432;11.418;2023-06-19T08:07:36;27.70;52.50
15013;DHT22;7603;49.432;11.418;2023-06-19T08:10:03;27.80;53.10
15013;DHT22;7603;49.432;11.418;2023-06-19T08:12:31;27.80;52.80
15013;DHT22;7603;49.432;11.418;2023-06-19T08:14:56;27.90;52.60
15013;DHT22;7603;49.432;11.418;2023-06-19T08:17:22;27.90;52.90
15013;DHT22;7603;49.432;11.418;2023-06-19T08:19:49;27.90;52.60
15013;DHT22;7603;49.432;11.418;2023-06-19T08:22:15;27.70;52.60
15013;DHT22;7603;49.432;11.418;2023-06-19T08:24:40;27.60;52.90
15013;DHT22;7603;49.432;11.418;2023-06-19T08:27:06;27.60;53.70
15013;DHT22;7603;49.432;11.418;2023-06-19T08:29:32;27.60;53.30
15013;DHT22;7603;49.432;11.418;2023-06-19T08:31:58;27.60;53.60
15013;DHT22;7603;49.432;11.418;2023-06-19T08:34:24;27.70;54.10
15013;DHT22;7603;49.432;11.418;2023-06-19T08:36:49;27.60;54.30
15013;DHT22;7603;49.432;11.418;2023-06-19T08:39:15;27.50;54.60
15013;DHT22;7603;49.432;11.418;2023-06-19T08:41:42;27.40;54.60
15013;DHT22;7603;49.432;11.418;2023-06-19T08:44:08;27.30;54.90
15013;DHT22;7603;49.432;11.418;2023-06-19T08:46:35;27.30;55.20
15013;DHT22;7603;49.432;11.418;2023-06-19T08:49:02;27.30;55.00
15013;DHT22;7603;49.432;11.418;2023-06-19T08:51:29;27.60;54.70
15013;DHT22;7603;49.432;11.418;2023-06-19T08:54:03;28.00;54.40
15013;DHT22;7603;49.432;11.418;2023-06-19T08:56:30;28.40;53.70
15013;DHT22;7603;49.432;11.418;2023-06-19T08:59:08;28.90;52.70
15013;DHT22;7603;49.432;11.418;2023-06-19T09:01:34;29.30;52.20
15013;DHT22;7603;49.432;11.418;2023-06-19T09:04:00;29.70;51.60
15013;DHT22;7603;49.432;11.418;2023-06-19T09:06:25;30.20;50.60
15013;DHT22;7603;49.432;11.418;2023-06-19T09:09:00;30.50;49.90
15013;DHT22;7603;49.432;11.418;2023-06-19T09:11:25;30.90;48.90
15013;DHT22;7603;49.432;11.418;2023-06-19T09:13:57;31.20;48.40
15013;DHT22;7603;49.432;11.418;2023-06-19T09:16:23;31.30;48.10
15013;DHT22;7603;49.432;11.418;2023-06-19T09:18:49;31.50;47.90
15013;DHT22;7603;49.432;11.418;2023-06-19T09:21:16;31.40;48.00
15013;DHT22;7603;49.432;11.418;2023-06-19T09:23:43;31.30;48.20
15013;DHT22;7603;49.432;11.418;2023-06-19T09:26:09;31.40;48.50
15013;DHT22;7603;49.432;11.418;2023-06-19T09:28:40;31.50;48.90
15013;DHT22;7603;49.432;11.418;2023-06-19T09:31:07;31.50;48.20
15013;DHT22;7603;49.432;11.418;2023-06-19T09:33:35;31.30;48.80
15013;DHT22;7603;49.432;11.418;2023-06-19T09:36:03;31.20;48.70
15013;DHT22;7603;49.432;11.418;2023-06-19T09:38:30;31.10;48.90
15013;DHT22;7603;49.432;11.418;2023-06-19T09:41:00;31.30;49.20
15013;DHT22;7603;49.432;11.418;2023-06-19T09:43:37;31.50;49.80
15013;DHT22;7603;49.432;11.418;2023-06-19T09:46:03;31.70;49.50
15013;DHT22;7603;49.432;11.418;2023-06-19T09:48:31;32.00;48.50
15013;DHT22;7603;49.432;11.418;2023-06-19T09:53:28;32.60;47.00
15013;DHT22;7603;49.432;11.418;2023-06-19T09:55:54;32.90;46.10
15013;DHT22;7603;49.432;11.418;2023-06-19T09:58:21;33.00;46.20
15013;DHT22;7603;49.432;11.418;2023-06-19T10:00:48;33.00;46.40
15013;DHT22;7603;49.432;11.418;2023-06-19T10:03:16;32.70;47.20
15013;DHT22;7603;49.432;11.418;2023-06-19T10:05:42;32.50;47.30
15013;DHT22;7603;49.432;11.418;2023-06-19T10:08:08;32.30;47.70
15013;DHT22;7603;49.432;11.418;2023-06-19T10:10:34;32.10;48.20
15013;DHT22;7603;49.432;11.418;2023-06-19T10:13:13;32.00;48.50
15013;DHT22;7603;49.432;11.418;2023-06-19T10:15:43;31.90;49.40
15013;DHT22;7603;49.432;11.418;2023-06-19T10:18:13;31.90;48.00
15013;DHT22;7603;49.432;11.418;2023-06-19T10:20:40;31.80;48.00
15013;DHT22;7603;49.432;11.418;2023-06-19T10:23:08;31.70;48.10
15013;DHT22;7603;49.432;11.418;2023-06-19T10:25:37;31.70;48.50
15013;DHT22;7603;49.432;11.418;2023-06-19T10:28:04;31.70;48.30
15013;DHT22;7603;49.432;11.418;2023-06-19T10:30:33;31.90;48.10
15013;DHT22;7603;49.432;11.418;2023-06-19T10:32:59;32.10;47.60
15013;DHT22;7603;49.432;11.418;2023-06-19T10:35:37;32.30;47.10
15013;DHT22;7603;49.432;11.418;2023-06-19T10:38:04;32.60;46.40
15013;DHT22;7603;49.432;11.418;2023-06-19T10:40:30;33.00;46.20
15013;DHT22;7603;49.432;11.418;2023-06-19T10:42:55;33.20;45.90
15013;DHT22;7603;49.432;11.418;2023-06-19T10:45:21;33.30;45.50
15013;DHT22;7603;49.432;11.418;2023-06-19T10:47:54;33.60;44.80
15013;DHT22;7603;49.432;11.418;2023-06-19T10:50:20;34.10;44.90
15013;DHT22;7603;49.432;11.418;2023-06-19T10:52:46;35.20;43.40
15013;DHT22;7603;49.432;11.418;2023-06-19T10:55:13;36.60;41.60
15013;DHT22;7603;49.432;11.418;2023-06-19T10:57:40;37.40;39.30
15013;DHT22;7603;49.432;11.418;2023-06-19T11:00:10;37.60;38.40
15013;DHT22;7603;49.432;11.418;2023-06-19T11:02:39;37.70;38.10
15013;DHT22;7603;49.432;11.418;2023-06-19T11:05:06;38.30;37.80
15013;DHT22;7603;49.432;11.418;2023-06-19T11:07:32;39.40;36.60
15013;DHT22;7603;49.432;11.418;2023-06-19T11:09:58;40.40;34.80
15013;DHT22;7603;49.432;11.418;2023-06-19T11:12:23;41.60;33.40
15013;DHT22;7603;49.432;11.418;2023-06-19T11:14:49;42.60;32.20
15013;DHT22;7603;49.432;11.418;2023-06-19T11:17:18;43.00;31.20
15013;DHT22;7603;49.432;11.418;2023-06-19T11:19:47;42.90;30.70
15013;DHT22;7603;49.432;11.418;2023-06-19T11:22:12;42.70;31.30
15013;DHT22;7603;49.432;11.418;2023-06-19T11:24:47;42.80;31.40
15013;DHT22;7603;49.432;11.418;2023-06-19T11:27:21;43.10;30.90
15013;DHT22;7603;49.432;11.418;2023-06-19T11:29:59;43.40;30.50
15013;DHT22;7603;49.432;11.418;2023-06-19T11:32:31;43.90;30.00
15013;DHT22;7603;49.432;11.418;2023-06-19T11:34:57;44.60;29.70
15013;DHT22;7603;49.432;11.418;2023-06-19T11:37:24;45.20;29.60
15013;DHT22;7603;49.432;11.418;2023-06-19T11:39:50;45.70;28.90
15013;DHT22;7603;49.432;11.418;2023-06-19T11:42:18;46.20;28.40
15013;DHT22;7603;49.432;11.418;2023-06-19T11:44:57;46.70;27.90
15013;DHT22;7603;49.432;11.418;2023-06-19T11:47:23;46.90;27.30
15013;DHT22;7603;49.432;11.418;2023-06-19T11:49:49;47.20;27.20
15013;DHT22;7603;49.432;11.418;2023-06-19T11:52:15;47.50;26.70
15013;DHT22;7603;49.432;11.418;2023-06-19T11:54:41;47.70;26.40
15013;DHT22;7603;49.432;11.418;2023-06-19T11:57:08;47.90;26.00
15013;DHT22;7603;49.432;11.418;2023-06-19T11:59:38;48.00;25.70
15013;DHT22;7603;49.432;11.418;2023-06-19T12:02:04;48.30;25.50
15013;DHT22;7603;49.432;11.418;2023-06-19T12:04:30;48.50;25.30
15013;DHT22;7603;49.432;11.418;2023-06-19T12:06:55;49.00;25.10
15013;DHT22;7603;49.432;11.418;2023-06-19T12:09:21;49.60;24.70
15013;DHT22;7603;49.432;11.418;2023-06-19T12:11:47;50.20;24.30
15013;DHT22;7603;49.432;11.418;2023-06-19T12:14:12;50.60;23.80
15013;DHT22;7603;49.432;11.418;2023-06-19T12:16:38;51.00;23.80
15013;DHT22;7603;49.432;11.418;2023-06-19T12:19:04;51.50;23.30
15013;DHT22;7603;49.432;11.418;2023-06-19T12:21:30;52.20;22.90
15013;DHT22;7603;49.432;11.418;2023-06-19T12:23:55;52.90;22.40
15013;DHT22;7603;49.432;11.418;2023-06-19T12:26:21;53.00;21.80
15013;DHT22;7603;49.432;11.418;2023-06-19T12:28:46;52.00;21.90
15013;DHT22;7603;49.432;11.418;2023-06-19T12:31:12;50.30;22.50
15013;DHT22;7603;49.432;11.418;2023-06-19T12:33:37;48.40;24.10
15013;DHT22;7603;49.432;11.418;2023-06-19T12:36:10;46.80;24.60
15013;DHT22;7603;49.432;11.418;2023-06-19T12:38:38;45.30;25.70
15013;DHT22;7603;49.432;11.418;2023-06-19T12:41:04;44.40;26.50
15013;DHT22;7603;49.432;11.418;2023-06-19T12:43:29;44.50;26.90
15013;DHT22;7603;49.432;11.418;2023-06-19T12:45:57;45.20;26.40
15013;DHT22;7603;49.432;11.418;2023-06-19T12:48:25;45.50;26.30
15013;DHT22;7603;49.432;11.418;2023-06-19T12:50:51;46.40;26.00
15013;DHT22;7603;49.432;11.418;2023-06-19T12:53:16;48.00;25.10
15013;DHT22;7603;49.432;11.418;2023-06-19T12:55:42;49.50;24.00
15013;DHT22;7603;49.432;11.418;2023-06-19T12:58:08;50.30;23.30
15013;DHT22;7603;49.432;11.418;2023-06-19T13:00:34;50.00;23.30
15013;DHT22;7603;49.432;11.418;2023-06-19T13:03:00;49.60;23.10
15013;DHT22;7603;49.432;11.418;2023-06-19T13:05:25;48.80;23.60
15013;DHT22;7603;49.432;11.418;2023-06-19T13:07:51;48.60;23.90
15013;DHT22;7603;49.432;11.418;2023-06-19T13:10:17;48.90;23.70
15013;DHT22;7603;49.432;11.418;2023-06-19T13:12:42;49.70;23.40
15013;DHT22;7603;49.432;11.418;2023-06-19T13:15:08;50.60;23.00
15013;DHT22;7603;49.432;11.418;2023-06-19T13:17:34;51.00;22.60
15013;DHT22;7603;49.432;11.418;2023-06-19T13:20:00;50.80;22.40
15013;DHT22;7603;49.432;11.418;2023-06-19T13:22:25;50.40;22.60
15013;DHT22;7603;49.432;11.418;2023-06-19T13:24:51;50.70;22.40
15013;DHT22;7603;49.432;11.418;2023-06-19T13:27:17;51.00;22.20
15013;DHT22;7603;49.432;11.418;2023-06-19T13:29:43;51.20;22.10
15013;DHT22;7603;49.432;11.418;2023-06-19T13:32:08;51.70;22.00
15013;DHT22;7603;49.432;11.418;2023-06-19T13:34:34;51.90;22.00
15013;DHT22;7603;49.432;11.418;2023-06-19T13:37:00;52.50;21.60
15013;DHT22;7603;49.432;11.418;2023-06-19T13:39:25;53.40;21.40
15013;DHT22;7603;49.432;11.418;2023-06-19T13:41:52;54.00;20.80
15013;DHT22;7603;49.432;11.418;2023-06-19T13:44:18;53.90;20.80
15013;DHT22;7603;49.432;11.418;2023-06-19T13:46:44;53.50;21.00
15013;DHT22;7603;49.432;11.418;2023-06-19T13:49:10;52.30;21.20
15013;DHT22;7603;49.432;11.418;2023-06-19T13:51:36;50.30;22.00
15013;DHT22;7603;49.432;11.418;2023-06-19T13:54:03;48.40;22.80
15013;DHT22;7603;49.432;11.418;2023-06-19T13:56:30;46.70;24.10
15013;DHT22;7603;49.432;11.418;2023-06-19T13:58:55;44.80;25.30
15013;DHT22;7603;49.432;11.418;2023-06-19T14:01:21;43.10;26.80
15013;DHT22;7603;49.432;11.418;2023-06-19T14:03:46;41.50;28.20
15013;DHT22;7603;49.432;11.418;2023-06-19T14:06:12;40.20;29.30
15013;DHT22;7603;49.432;11.418;2023-06-19T14:08:38;38.90;30.50
15013;DHT22;7603;49.432;11.418;2023-06-19T14:11:05;37.80;31.50
15013;DHT22;7603;49.432;11.418;2023-06-19T14:13:30;36.80;33.90
15013;DHT22;7603;49.432;11.418;2023-06-19T14:15:56;35.80;34.70
15013;DHT22;7603;49.432;11.418;2023-06-19T14:18:22;35.00;36.10
15013;DHT22;7603;49.432;11.418;2023-06-19T14:20:47;34.30;37.60
15013;DHT22;7603;49.432;11.418;2023-06-19T14:23:13;33.80;39.00
15013;DHT22;7603;49.432;11.418;2023-06-19T14:25:39;33.30;39.80
15013;DHT22;7603;49.432;11.418;2023-06-19T14:28:04;32.80;42.60
15013;DHT22;7603;49.432;11.418;2023-06-19T14:30:30;32.00;46.00
15013;DHT22;7603;49.432;11.418;2023-06-19T14:32:56;31.00;48.50
15013;DHT22;7603;49.432;11.418;2023-06-19T14:35:21;29.90;51.30
15013;DHT22;7603;49.432;11.418;2023-06-19T14:37:47;29.30;53.20
15013;DHT22;7603;49.432;11.418;2023-06-19T14:40:12;28.90;54.80
15013;DHT22;7603;49.432;11.418;2023-06-19T14:42:38;28.60;56.20
15013;DHT22;7603;49.432;11.418;2023-06-19T14:45:04;28.30;57.20
15013;DHT22;7603;49.432;11.418;2023-06-19T14:47:29;28.00;57.60
15013;DHT22;7603;49.432;11.418;2023-06-19T14:49:55;27.80;57.90
15013;DHT22;7603;49.432;11.418;2023-06-19T14:52:20;27.80;58.70
15013;DHT22;7603;49.432;11.418;2023-06-19T14:54:47;27.90;58.20
15013;DHT22;7603;49.432;11.418;2023-06-19T14:57:13;28.50;57.90
15013;DHT22;7603;49.432;11.418;2023-06-19T14:59:38;29.60;55.60
15013;DHT22;7603;49.432;11.418;2023-06-19T15:02:04;30.90;52.30
15013;DHT22;7603;49.432;11.418;2023-06-19T15:04:32;31.70;49.70
15013;DHT22;7603;49.432;11.418;2023-06-19T15:06:58;31.90;49.00
15013;DHT22;7603;49.432;11.418;2023-06-19T15:09:23;31.90;48.70
15013;DHT22;7603;49.432;11.418;2023-06-19T15:11:49;31.60;49.20
15013;DHT22;7603;49.432;11.418;2023-06-19T15:14:15;31.30;49.50
15013;DHT22;7603;49.432;11.418;2023-06-19T15:16:42;31.10;50.70
15013;DHT22;7603;49.432;11.418;2023-06-19T15:19:08;30.80;50.90
15013;DHT22;7603;49.432;11.418;2023-06-19T15:21:33;30.70;52.00
15013;DHT22;7603;49.432;11.418;2023-06-19T15:23:59;30.60;52.10
15013;DHT22;7603;49.432;11.418;2023-06-19T15:26:24;30.40;52.00
15013;DHT22;7603;49.432;11.418;2023-06-19T15:28:51;30.20;52.30